Aeroporto :
LOGIN :

Iscrizione | Disclaimer

   EN    FR    IT 

 










Sommario :    VFR   VFR Marginale   IFR   IFR Intensivo   IFR Molto Intensivo
Visibilità : 
Base nubi : 
>= 8 km
>= 3000ft
5 / 8 km
1000 / 3000 ft
1500m / 5 km
500 / 1000 ft
800 / 1500m
200 / 500 ft
< 800m
< 200 ft
Simboli :   Temporali  Nebbia  Neve Forte  Precipitazioni Forti  Vento > 20 kt
SIGMETs :   Varie  Temporali  Ghiacco  Turbolenza  Onda orograficha  Ceneri Vulcaniche







- Altitudine del aeroporto : 963 ft
- Codice IATA : TGM


LRTM - Transilvania Târgu Mureş Int.

ULTIMO METAR :
  • 202030Z AUTO 21002KT 9999 OVC059/// 06/04 Q1031

METARs OBSOLETI :
  • 202000Z AUTO 22004KT 9999 BKN059/// SCT085/// 06/03 Q1031
  • 201930Z AUTO 23005KT 9999 FEW062/// OVC100/// 06/03 Q1031
  • 201900Z AUTO 23004KT 9999 BKN058/// SCT078/// 06/04 Q1031 REUP
  • 201830Z AUTO 25005KT 9999 FEW058 BKN084 07/03 Q1030 REDZ
  • 201800Z 23005KT 9999 -RA FEW013 BKN038 07/04 Q1030 R07/29//95

TAF TAF LRTM
Valido dal 20 a 18 ore il 21 a 03 ore UTC


201700Z 2018/2103 VRB04KT 9999 BKN035
Nessun NOTAM noto per questo aeroporto.



MetMap, La meteo Aeronautica in un colpo d'occhio ! - Copyright ORBIFLY Dicembre 2007 - Disclaimer

ORBIFLY MET'MAP TEAM :

Programmazione e sviluppo : Alexandra Zaïnal
Concezione e sviluppo : Baudouin d'Aumeries
Co-Programmazione e sviluppo : Marc-Olivier Méhu
Supporto tecnico e logistico : Manuel Goepfert
Aiuto per la traduzione : Arnaldo La Scala

Contatto : metmap@orbifly.com




FONTI E CREDITI :

   NOAA